Station: Cape Willoughby

  Atmospheric Gas Attenuation - ITU Rec 676-11   --------------- db/100km ---------------
Date Time Temp RH % AH g/m3 Dew Point Wind Direction Speed kph Gust kph Barometer mB Rainfall Since 9am 24GHz 47GHz 76GHz 122GHz 134GHz 241GHz
22 13:20 21.4 83 15.56 18.4 9 11 1013.1 1 34.0 35.2 64.6 170.6 182.4 632.8
22 13:10 21.4 82 15.37 18.2 13 15 1013.1 1 33.6 34.9 63.7 168.3 179.6 623.0
22 13:00 21.3 81 15.1 17.9 11 15 1014.7 1 33.0 34.5 62.7 165.5 176.1 610.6
22 12:50 21.4 79 14.81 17.6 11 13 1013.1 1 32.4 33.9 61.2 161.6 171.4 594.4
22 12:40 21.9 76 14.66 17.6 15 17 1013.1 0.6 32.0 33.4 60.2 158.8 168.1 583.0
22 12:30 22 77 14.94 17.8 11 15 1014.5 0.6 32.6 33.9 61.4 162.1 172.1 596.9
22 12:20 21.4 79 14.81 17.6 11 13 1013.1 0.6 32.4 33.9 61.2 161.6 171.4 594.4
22 12:10 21.8 75 14.39 17.3 9 11 1013.1 0.6 31.4 33.0 59.1 155.9 164.5 570.3
22 12:00 22.2 77 15.12 18 13 17 1014.7 0.4 33.0 34.2 62.0 163.8 174.3 604.5
22 11:50 21.8 80 15.35 18.2 15 17 1013.1 0.4 33.5 34.7 63.3 167.2 178.4 618.7
22 11:40 21.3 80 14.91 17.7 13 15 1013.1 0.4 32.6 34.1 61.7 163.0 173.1 600.3
22 11:30 21.6 78 14.79 17.6 28 37 1015.1 0 32.3 33.9 61.1 161.3 170.9 592.7
22 11:20 22.2 74 14.53 17.5 33 37 1013.1 0 31.7 33.1 59.4 156.7 165.6 574.3
22 11:10 23 71 14.59 17.6 43 46 1013.1 0 31.8 32.9 59.0 155.8 164.7 571.3
22 11:00 23 74 15.21 18.1 37 46 1014.9 0 33.1 34.0 61.8 163.2 173.8 602.8
22 10:50 22.4 76 15.09 18.1 30 33 1013.1 0 32.9 34.0 61.7 162.8 173.2 600.7
22 10:40 22.2 74 14.53 17.3 22 24 1013.1 0 31.7 33.1 59.4 156.7 165.6 574.3
22 10:30 22.6 73 14.66 17.5 24 28 1014.8 0 31.9 33.2 59.7 157.6 166.8 578.5
22 10:20 22.9 71 14.51 17.5 24 26 1013.1 0 31.6 32.8 58.7 155.1 163.8 568.1
22 10:10 22.9 71 14.51 17.5 28 30 1013.1 0 31.6 32.8 58.7 155.1 163.8 568.1
22 10:00 22.7 73 14.75 17.6 28 32 1014.6 0 32.1 33.3 60.0 158.4 167.8 582.1
22 09:50 22.1 73 14.25 17 26 28 1013.1 0 31.1 32.6 58.2 153.7 161.8 561.2
22 09:40 21.6 73 13.84 16.5 19 22 1013.1 0 30.3 32.1 56.8 149.9 157.1 544.6
22 09:30 21.9 70 13.51 16.2 13 24 1014.8 0 29.6 31.5 55.3 145.8 152.1 527.1
22 09:20 22.6 64 12.86 15.6 20 22 1013.1 0 28.1 30.1 52.0 137.1 141.6 490.8
22 09:10 22.4 66 13.11 15.7 28 32 1013.1 0 28.7 30.6 53.2 140.2 145.4 503.9
22 09:00 22.5 66 13.18 15.8 28 30 1014.6 0 28.8 30.7 53.5 141.0 146.3 507.2
22 08:50 22.3 66 13.03 15.8 28 30 1013.1 0 28.5 30.5 52.9 139.5 144.5 500.7
22 08:40 22.2 66 12.96 15.7 26 28 1013.1 0 28.4 30.4 52.7 138.9 143.7 498.1
22 08:30 22.5 66 13.18 15.8 24 30 1014.5 0 28.8 30.7 53.5 141.0 146.3 507.1
22 08:20 22.5 65 12.98 15.6 26 28 1013.1 0 28.4 30.3 52.6 138.6 143.5 497.1
22 08:10 22.4 63 12.51 15.2 28 30 1013.1 0 27.4 29.6 50.7 133.7 137.3 475.6
22 08:00 22.4 64 12.71 15.3 30 33 1014.5 0 27.8 30.0 51.6 136.0 140.1 485.5
22 07:50 22.3 63 12.44 15.1 30 32 1013.1 0 27.3 29.5 50.5 133.1 136.6 473.0
22 07:40 22.4 63 12.51 15 32 33 1013.1 0 27.4 29.6 50.7 133.7 137.3 475.6
22 07:30 22.3 64 12.64 15.2 32 33 1014.3 0 27.7 29.9 51.4 135.4 139.4 482.8
22 07:20 22.2 66 12.96 15.5 30 33 1013.1 0 28.4 30.4 52.7 138.9 143.7 498.1
22 07:10 21.8 69 13.24 16 30 32 1013.1 0 29.0 31.0 54.1 142.8 148.3 514.0
22 07:00 21.7 72 13.73 16.4 26 32 1013.8 0 30.0 31.9 56.3 148.6 155.4 538.8
22 06:50 21.6 72 13.65 16.3 24 28 1013.1 0 29.9 31.8 56.0 147.8 154.4 535.3
22 06:40 21.5 72 13.58 16.4 17 20 1013.1 0 29.7 31.7 55.8 147.2 153.6 532.5
22 06:30 21.6 72 13.65 16.3 17 22 1013.8 0 29.9 31.8 56.0 147.9 154.5 535.5
22 06:20 21.8 71 13.62 16.3 19 20 1013.1 0 29.8 31.7 55.7 147.1 153.6 532.4
22 06:10 21.9 69 13.31 16.1 20 22 1013.1 0 29.1 31.1 54.4 143.4 149.1 516.7
22 06:00 21.9 70 13.51 16.2 20 24 1013.6 0 29.6 31.4 55.2 145.7 151.9 526.6
22 05:50 22.1 69 13.47 16.3 22 26 1013.1 0 29.5 31.3 54.9 144.8 150.9 523.1
22 05:40 21.9 72 13.89 16.6 28 30 1013.1 0 30.4 32.1 56.8 149.9 157.2 544.9
22 05:30 21.9 73 14.09 16.8 30 33 1013.5 0 30.8 32.4 57.7 152.3 160.0 554.9
22 05:20 21.9 73 14.09 16.8 30 32 1013.1 0 30.8 32.4 57.7 152.2 160.0 554.7
22 05:10 21.9 73 14.09 16.8 30 35 1013.1 0 30.8 32.4 57.7 152.2 160.0 554.7
22 04:50 22 72 13.97 16.7 32 35 1013.1 0 30.5 32.2 57.1 150.7 158.1 548.1
22 04:40 22 72 13.97 16.7 30 32 1013.1 0 30.5 32.2 57.1 150.7 158.1 548.1
22 04:30 22 72 13.97 16.7 28 32 1013.5 0 30.5 32.2 57.1 150.7 158.1 548.3
22 04:20 22 72 13.97 16.7 26 28 1013.1 0 30.5 32.2 57.1 150.7 158.1 548.1
22 04:10 22.1 71 13.86 16.6 26 28 1013.1 0 30.3 32.0 56.5 149.2 156.3 542.0
22 04:00 22.5 69 13.78 16.5 28 32 1013.8 0 30.1 31.7 56.0 147.6 154.5 535.6
22 03:50 22.5 68 13.58 16.3 30 32 1013.1 0 29.7 31.3 55.1 145.3 151.7 525.7
22 03:40 22.7 66 13.33 16.2 30 32 1013.1 0 29.1 30.8 53.9 142.1 147.8 512.4
22 03:30 22.6 68 13.66 16.4 30 35 1013.9 0 29.8 31.5 55.4 146.1 152.7 529.2
22 03:20 22.4 69 13.7 16.4 30 35 1013.1 0 29.9 31.6 55.6 146.8 153.5 532.2
22 03:10 22.2 69 13.55 16.4 30 32 1013.1 0 29.6 31.4 55.2 145.5 151.8 526.3
22 03:00 22.2 71 13.94 16.7 30 33 1014 0 30.5 32.1 56.9 150.0 157.4 545.6
22 02:50 22.2 69 13.55 16.4 30 32 1013.1 0 29.6 31.4 55.2 145.5 151.8 526.3
22 02:40 22.3 69 13.62 16.5 32 33 1013.1 0 29.8 31.5 55.4 146.1 152.6 529.0
22 02:30 22.4 70 13.9 16.7 32 35 1014.4 0 30.4 32.0 56.6 149.3 156.4 542.4
22 02:20 22.6 68 13.66 16.4 32 35 1013.1 0 29.8 31.4 55.3 146.0 152.6 528.9
22 02:10 22.6 68 13.66 16.4 32 37 1013.1 0 29.8 31.4 55.3 146.0 152.6 528.9
22 02:00 22.7 67 13.54 16.3 32 35 1014.5 0 29.6 31.2 54.8 144.7 150.9 523.0
22 01:50 22.9 66 13.49 16.2 33 35 1013.1 0 29.5 31.0 54.4 143.5 149.6 518.7
22 01:40 22.7 66 13.33 16.2 33 35 1013.1 0 29.1 30.8 53.9 142.1 147.8 512.4
22 01:30 22.8 66 13.41 16.1 32 37 1014.7 0 29.3 31.0 54.2 143.0 148.9 516.2
22 01:20 22.8 66 13.41 16.1 32 35 1013.1 0 29.3 30.9 54.1 142.8 148.7 515.6
22 01:10 22.9 64 13.08 15.9 30 33 1013.1 0 28.6 30.3 52.7 139.0 144.1 499.3
22 01:00 22.9 64 13.08 15.7 32 33 1015 0 28.6 30.4 52.8 139.3 144.3 500.0
22 00:50 23.1 62 12.82 15.6 30 32 1013.1 0 28.0 29.9 51.5 135.8 140.2 485.8
22 00:40 23.2 62 12.89 15.7 26 28 1013.1 0 28.2 29.9 51.7 136.4 141.0 488.5
22 00:30 23.4 62 13.04 15.7 24 28 1015.3 0 28.5 30.2 52.3 138.0 142.8 495.0
22 00:20 23.6 62 13.19 15.9 22 26 1013.1 0 28.8 30.3 52.7 139.0 144.2 500.0
22 00:10 23.4 62 13.04 15.9 19 24 1013.1 0 28.5 30.1 52.2 137.7 142.6 494.2
22 00:00 23.3 64 13.38 16.1 15 20 1015.4 0 29.2 30.8 53.8 141.9 147.6 511.7
21 23:50 23.3 64 13.38 16.3 17 19 1013.1 0 29.2 30.7 53.7 141.6 147.4 510.8
21 23:40 22.8 69 14.02 16.8 13 17 1013.1 0 30.6 32.0 56.7 149.7 157.1 544.9
21 23:30 22.1 71 13.86 16.6 11 17 1015.4 0 30.3 32.0 56.7 149.5 156.6 543.0
21 23:20 22 72 13.97 16.7 9 9 1013.1 0 30.5 32.2 57.1 150.7 158.1 548.1
21 23:10 21.7 73 13.92 16.6 9 11 1013.1 0 30.5 32.2 57.1 150.7 158.0 547.8
21 23:00 21.6 72 13.65 16.3 6 7 1015.6 0 29.9 31.9 56.1 148.1 154.7 536.3
21 22:50 21.6 72 13.65 16.3 6 7 1013.1 0 29.9 31.8 56.0 147.8 154.4 535.3
21 22:40 21.5 72 13.58 16.2 9 11 1013.1 0 29.7 31.7 55.8 147.2 153.6 532.5
21 22:30 21.6 72 13.65 16.3 11 19 1015.7 0 29.9 31.9 56.1 148.1 154.7 536.3
21 22:20 21.5 72 13.58 16.2 7 13 1013.1 0 29.7 31.7 55.8 147.2 153.6 532.5
21 22:10 21.5 72 13.58 16.2 7 9 1013.1 0 29.7 31.7 55.8 147.2 153.6 532.5
21 22:00 21.3 73 13.61 16.3 4 13 1015.7 0 29.8 31.9 56.2 148.2 154.8 536.4
21 21:50 21.3 72 13.42 16.2 2 2 1013.1 0 29.4 31.5 55.2 145.7 151.8 526.1
21 21:40 21.3 72 13.42 16.2 20 26 1013.1 0 29.4 31.5 55.2 145.7 151.8 526.1
21 21:30 21.4 72 13.5 16.1 33 39 1015.1 0 29.6 31.7 55.6 146.7 153.0 530.1
21 21:20 21.4 71 13.31 15.9 35 41 1013.1 0 29.2 31.3 54.7 144.3 150.1 520.1
21 21:10 21.6 70 13.28 15.9 35 41 1013.1 0 29.1 31.1 54.4 143.6 149.3 517.3
21 21:00 21.8 69 13.24 15.9 39 46 1014.9 0 29.0 31.1 54.2 143.0 148.5 514.7
21 20:50 21.9 68 13.12 15.7 39 44 1013.1 0 28.7 30.8 53.6 141.3 146.5 507.6
21 20:40 21.9 68 13.12 15.7 43 48 1013.1 0 28.7 30.8 53.6 141.3 146.5 507.6

Last Refresh: 22-Jan-2022 13:23:51

Bureau of Meteorology